createdAt,value
2023-04-23T00:00:37.351Z,10.38
2023-04-23T00:03:43.200Z,11.18
2023-04-23T00:06:48.185Z,10.27
2023-04-23T00:09:56.290Z,11.43
2023-04-23T00:12:59.354Z,12.40
2023-04-23T00:16:01.713Z,11.45
2023-04-23T00:19:03.905Z,10.50
2023-04-23T00:22:06.414Z,11.15
2023-04-23T00:25:09.648Z,11.45
2023-04-23T00:28:11.690Z,10.35
2023-04-23T00:31:13.828Z,13.20
2023-04-23T00:34:16.148Z,10.93
2023-04-23T00:37:18.404Z,11.75
2023-04-23T00:40:21.020Z,11.93
2023-04-23T00:43:24.292Z,11.15
2023-04-23T00:46:27.037Z,11.48
2023-04-23T00:49:30.042Z,10.63
2023-04-23T00:52:32.327Z,10.93
2023-04-23T00:55:34.727Z,10.85
2023-04-23T00:58:38.025Z,10.20
2023-04-23T01:01:41.328Z,11.15
2023-04-23T01:04:51.278Z,11.10
2023-04-23T01:07:54.395Z,10.25
2023-04-23T01:10:56.465Z,9.55
2023-04-23T01:13:59.508Z,9.93
2023-04-23T01:17:03.264Z,10.27
2023-04-23T01:20:06.819Z,10.18
2023-04-23T01:23:08.886Z,10.88
2023-04-23T01:26:11.955Z,10.57
2023-04-23T01:29:14.455Z,12.13
2023-04-23T01:32:17.620Z,11.65
2023-04-23T01:35:19.799Z,10.50
2023-04-23T01:38:22.854Z,10.73
2023-04-23T01:41:25.772Z,11.10
2023-04-23T01:44:27.954Z,10.13
2023-04-23T01:47:30.191Z,9.32
2023-04-23T01:50:32.370Z,10.68
2023-04-23T01:53:34.419Z,9.57
2023-04-23T01:56:36.608Z,10.00
2023-04-23T01:59:40.505Z,9.95
2023-04-23T02:02:44.554Z,9.63
2023-04-23T02:05:46.883Z,10.15
2023-04-23T02:08:49.953Z,9.38
2023-04-23T02:11:51.978Z,10.27
2023-04-23T02:14:54.646Z,10.98
2023-04-23T02:17:56.956Z,10.32
2023-04-23T02:21:00.031Z,10.93
2023-04-23T02:24:02.486Z,9.38
2023-04-23T02:27:05.874Z,9.55
2023-04-23T02:30:09.706Z,11.15
2023-04-23T02:33:12.664Z,11.13
2023-04-23T02:36:14.862Z,11.05
2023-04-23T02:39:17.134Z,11.23
2023-04-23T02:42:19.212Z,11.95
2023-04-23T02:45:21.490Z,10.65
2023-04-23T02:48:27.497Z,12.00
2023-04-23T02:51:29.861Z,12.07
2023-04-23T02:54:32.658Z,10.02
2023-04-23T02:57:34.904Z,9.73
2023-04-23T03:00:37.087Z,11.82
2023-04-23T03:03:39.974Z,11.10
2023-04-23T03:06:42.799Z,10.85
2023-04-23T03:09:44.873Z,10.77
2023-04-23T03:12:47.144Z,10.38
2023-04-23T03:15:51.350Z,11.80
2023-04-23T03:18:53.452Z,10.10
2023-04-23T03:21:55.925Z,10.40
2023-04-23T03:24:58.308Z,10.43
2023-04-23T03:28:01.084Z,9.88
2023-04-23T03:31:04.041Z,11.35
2023-04-23T03:34:06.271Z,11.27
2023-04-23T03:37:10.981Z,10.75
2023-04-23T03:40:14.413Z,11.02
2023-04-23T03:43:18.566Z,13.32
2023-04-23T03:46:40.148Z,9.73
2023-04-23T03:49:45.432Z,9.48
2023-04-23T03:52:48.815Z,11.43
2023-04-23T03:56:05.924Z,9.93
2023-04-23T03:59:14.210Z,10.52
2023-04-23T04:02:16.692Z,11.95
2023-04-23T04:05:19.019Z,11.48
2023-04-23T04:08:26.281Z,11.18
2023-04-23T04:11:28.450Z,10.38
2023-04-23T04:14:35.547Z,8.75
2023-04-23T04:17:38.267Z,9.63
2023-04-23T04:20:45.853Z,10.52
2023-04-23T04:23:48.297Z,9.98
2023-04-23T04:26:52.754Z,9.73
2023-04-23T04:29:54.954Z,9.13
2023-04-23T04:32:57.512Z,10.80
2023-04-23T04:36:00.705Z,11.00
2023-04-23T04:39:03.700Z,13.73
2023-04-23T04:42:07.453Z,10.85
2023-04-23T04:45:10.746Z,11.13
2023-04-23T04:48:14.880Z,11.63
2023-04-23T04:51:17.460Z,10.50
2023-04-23T04:54:19.631Z,11.98
2023-04-23T04:57:23.346Z,11.15
2023-04-23T05:00:30.366Z,10.45
2023-04-23T05:03:33.049Z,9.73
2023-04-23T05:06:35.443Z,10.82
2023-04-23T05:09:37.620Z,9.98
2023-04-23T05:12:41.621Z,11.57
2023-04-23T05:15:43.747Z,11.00
2023-04-23T05:18:46.843Z,10.95
2023-04-23T05:21:49.021Z,11.55
2023-04-23T05:24:51.082Z,10.20
2023-04-23T05:27:53.791Z,12.00
2023-04-23T05:30:57.675Z,9.73
2023-04-23T05:33:59.741Z,9.35
2023-04-23T05:37:02.544Z,9.07
2023-04-23T05:40:07.026Z,10.73
2023-04-23T05:43:09.514Z,9.82
2023-04-23T05:46:11.796Z,9.88
2023-04-23T05:49:13.909Z,10.38
2023-04-23T05:52:16.478Z,10.48
2023-04-23T05:55:20.510Z,10.70
2023-04-23T05:58:23.762Z,10.13
2023-04-23T06:01:26.128Z,9.43
2023-04-23T06:04:28.637Z,8.93
2023-04-23T06:07:32.771Z,8.65
2023-04-23T06:10:34.917Z,10.38
2023-04-23T06:13:44.059Z,9.43
2023-04-23T06:16:46.667Z,10.88
2023-04-23T06:19:48.710Z,10.52
2023-04-23T06:22:50.902Z,9.82
2023-04-23T06:25:53.062Z,8.30
2023-04-23T06:28:55.190Z,8.68
2023-04-23T06:32:13.852Z,9.35
2023-04-23T06:35:15.981Z,8.95
2023-04-23T06:38:18.990Z,10.32
2023-04-23T06:41:21.356Z,9.50
2023-04-23T06:44:34.700Z,7.95
2023-04-23T06:47:38.378Z,5.80
2023-04-23T06:50:40.702Z,7.32
2023-04-23T06:53:42.870Z,9.88
2023-04-23T06:56:44.991Z,8.77
2023-04-23T06:59:47.750Z,8.63
2023-04-23T07:02:51.064Z,11.02
2023-04-23T07:05:54.403Z,9.70
2023-04-23T07:08:56.475Z,10.10
2023-04-23T07:11:58.584Z,10.13
2023-04-23T07:15:00.962Z,10.48
2023-04-23T07:18:03.937Z,9.55
2023-04-23T07:21:06.548Z,11.43
2023-04-23T07:24:08.630Z,10.88
2023-04-23T07:27:10.885Z,9.20
2023-04-23T07:30:13.536Z,10.90
2023-04-23T07:33:15.711Z,10.50
2023-04-23T07:36:18.051Z,10.82
2023-04-23T07:39:20.212Z,10.13
2023-04-23T07:42:22.274Z,7.97
2023-04-23T07:45:24.425Z,9.10
2023-04-23T07:48:26.663Z,9.85
2023-04-23T07:51:28.930Z,9.32
2023-04-23T07:54:30.973Z,7.63
2023-04-23T07:57:33.122Z,7.60
2023-04-23T08:00:37.577Z,7.38
2023-04-23T08:03:39.937Z,8.80
2023-04-23T08:06:42.701Z,6.07
2023-04-23T08:09:46.817Z,5.82
2023-04-23T08:12:49.202Z,6.88
2023-04-23T08:15:52.723Z,7.03
2023-04-23T08:19:05.011Z,8.40
2023-04-23T08:22:11.035Z,7.00
2023-04-23T08:25:14.482Z,8.05
2023-04-23T08:28:16.639Z,6.13
2023-04-23T08:31:26.517Z,7.82
2023-04-23T08:34:29.230Z,6.25
2023-04-23T08:37:32.927Z,6.70
2023-04-23T08:40:38.001Z,8.80
2023-04-23T08:44:04.790Z,6.07
2023-04-23T08:47:11.120Z,7.72
2023-04-23T08:50:18.367Z,5.75
2023-04-23T08:53:25.880Z,4.60
2023-04-23T08:56:28.214Z,4.15
2023-04-23T08:59:34.563Z,4.60
2023-04-23T09:02:38.488Z,5.88
2023-04-23T09:05:42.948Z,5.22
2023-04-23T09:08:45.857Z,5.75
2023-04-23T09:11:47.955Z,6.40
2023-04-23T09:14:51.138Z,6.90
2023-04-23T09:17:53.670Z,5.68
2023-04-23T09:20:55.895Z,4.70
2023-04-23T09:23:58.015Z,4.97
2023-04-23T09:27:01.339Z,3.75
2023-04-23T09:30:12.064Z,4.43
2023-04-23T09:33:16.646Z,4.13
2023-04-23T09:36:22.709Z,4.15
2023-04-23T09:39:25.045Z,4.20
2023-04-23T09:42:28.782Z,3.88
2023-04-23T09:45:32.905Z,6.90
2023-04-23T09:48:43.134Z,3.15
2023-04-23T09:51:49.490Z,4.43
2023-04-23T09:54:51.694Z,3.13
2023-04-23T09:57:55.112Z,2.47
2023-04-23T10:01:07.944Z,2.33
2023-04-23T10:04:13.553Z,3.28
2023-04-23T10:07:20.043Z,3.72
2023-04-23T10:10:22.642Z,3.42
2023-04-23T10:13:25.921Z,3.78
2023-04-23T10:16:35.513Z,2.78
2023-04-23T10:19:45.250Z,1.90
2023-04-23T10:22:47.942Z,2.08
2023-04-23T10:25:53.279Z,2.35
2023-04-23T10:28:56.813Z,2.20
2023-04-23T10:32:04.279Z,2.92
2023-04-23T10:35:08.081Z,3.40
2023-04-23T10:38:10.548Z,2.58
2023-04-23T10:41:19.652Z,2.97
2023-04-23T10:44:45.063Z,3.67
2023-04-23T10:47:46.386Z,2.03
2023-04-23T10:51:09.850Z,1.73
2023-04-23T10:54:20.115Z,2.58
2023-04-23T10:57:22.310Z,3.10
2023-04-23T11:00:24.769Z,3.25
2023-04-23T11:03:31.802Z,2.55
2023-04-23T11:07:07.777Z,1.88
2023-04-23T11:10:14.450Z,2.67
2023-04-23T11:13:22.818Z,3.10
2023-04-23T11:16:30.415Z,2.53
2023-04-23T11:19:38.420Z,1.90
2023-04-23T11:22:46.562Z,2.67
2023-04-23T11:25:48.766Z,3.42
2023-04-23T11:28:54.784Z,1.90
2023-04-23T11:32:02.577Z,2.75
2023-04-23T11:35:07.824Z,2.75
2023-04-23T11:38:10.638Z,3.10
2023-04-23T11:41:12.772Z,2.65
2023-04-23T11:44:14.921Z,5.53
2023-04-23T11:47:21.461Z,4.72
2023-04-23T11:50:27.555Z,2.72
2023-04-23T11:53:29.689Z,2.47
2023-04-23T11:56:35.785Z,2.13
2023-04-23T11:59:38.117Z,2.50
2023-04-23T12:02:56.597Z,3.92
2023-04-23T12:05:59.399Z,1.67
2023-04-23T12:09:01.472Z,4.10
2023-04-23T12:12:06.017Z,3.10
2023-04-23T12:15:09.074Z,1.88
2023-04-23T12:18:12.909Z,3.35
2023-04-23T12:21:15.565Z,2.05
2023-04-23T12:24:18.037Z,4.07
2023-04-23T12:27:23.996Z,4.10
2023-04-23T12:30:30.500Z,7.13
2023-04-23T12:33:32.556Z,1.67
2023-04-23T12:36:36.896Z,1.75
2023-04-23T12:39:38.948Z,2.08
2023-04-23T12:42:42.390Z,2.60
2023-04-23T12:45:47.682Z,2.58
2023-04-23T12:48:49.824Z,2.38
2023-04-23T12:51:52.872Z,1.23
2023-04-23T12:54:56.892Z,1.73
2023-04-23T12:58:02.784Z,2.03
2023-04-23T13:01:04.970Z,5.97
2023-04-23T13:04:07.099Z,2.55
2023-04-23T13:07:11.796Z,3.10
2023-04-23T13:10:13.916Z,2.47
2023-04-23T13:13:16.053Z,3.50
2023-04-23T13:16:21.290Z,3.70
2023-04-23T13:19:23.437Z,3.63
2023-04-23T13:22:29.072Z,3.40
2023-04-23T13:25:31.274Z,1.90
2023-04-23T13:28:33.337Z,2.78
2023-04-23T13:31:38.399Z,4.45
2023-04-23T13:34:40.714Z,2.72
2023-04-23T13:37:48.749Z,2.95
2023-04-23T13:40:50.935Z,2.20
2023-04-23T13:43:52.963Z,1.73
2023-04-23T13:46:59.216Z,2.38
2023-04-23T13:50:09.857Z,2.55
2023-04-23T13:53:15.177Z,5.00
2023-04-23T13:56:18.272Z,4.15
2023-04-23T13:59:22.555Z,4.60
2023-04-23T14:02:24.715Z,2.65
2023-04-23T14:05:26.863Z,4.78
2023-04-23T14:08:30.757Z,3.72
2023-04-23T14:11:32.936Z,2.83
2023-04-23T14:14:35.212Z,2.60
2023-04-23T14:17:39.372Z,1.75
2023-04-23T14:20:42.303Z,2.40
2023-04-23T14:23:55.501Z,1.40
2023-04-23T14:26:58.110Z,5.55
2023-04-23T14:30:05.604Z,2.08
2023-04-23T14:33:07.852Z,2.97
2023-04-23T14:36:13.234Z,6.38
2023-04-23T14:39:17.204Z,4.95
2023-04-23T14:42:19.599Z,5.18
2023-04-23T14:45:21.722Z,2.85
2023-04-23T14:48:23.788Z,5.60
2023-04-23T14:51:27.529Z,3.38
2023-04-23T14:54:29.645Z,3.38
2023-04-23T14:57:31.807Z,2.70
2023-04-23T15:00:34.094Z,2.80
2023-04-23T15:03:37.067Z,2.25
2023-04-23T15:06:40.855Z,3.03
2023-04-23T15:09:43.512Z,3.58
2023-04-23T15:12:56.042Z,2.95
2023-04-23T15:16:03.456Z,4.03
2023-04-23T15:19:12.432Z,3.00
2023-04-23T15:22:14.983Z,4.00
2023-04-23T15:25:18.948Z,3.85
2023-04-23T15:28:21.658Z,2.88
2023-04-23T15:31:27.743Z,3.47
2023-04-23T15:34:36.705Z,1.90
2023-04-23T15:37:40.488Z,3.13
2023-04-23T15:40:42.764Z,4.95
2023-04-23T15:43:44.857Z,2.83
2023-04-23T15:46:47.009Z,1.33
2023-04-23T15:49:49.852Z,3.00
2023-04-23T15:52:52.050Z,3.08
2023-04-23T15:55:54.505Z,3.15
2023-04-23T15:58:57.297Z,3.10
2023-04-23T16:02:06.970Z,4.95
2023-04-23T16:05:09.881Z,2.65
2023-04-23T16:08:12.639Z,2.97
2023-04-23T16:11:15.019Z,2.88
2023-04-23T16:14:21.915Z,4.05
2023-04-23T16:17:24.887Z,3.85
2023-04-23T16:20:28.668Z,3.78
2023-04-23T16:23:31.162Z,3.15
2023-04-23T16:26:33.901Z,4.07
2023-04-23T16:29:36.077Z,5.18
2023-04-23T16:32:39.424Z,3.70
2023-04-23T16:35:41.884Z,4.68
2023-04-23T16:38:49.608Z,4.15
2023-04-23T16:41:51.741Z,3.40
2023-04-23T16:44:56.778Z,4.80
2023-04-23T16:49:07.457Z,3.38
2023-04-23T16:51:56.105Z,3.28
2023-04-23T16:55:43.556Z,3.38
2023-04-23T16:58:45.880Z,4.38
2023-04-23T17:01:56.585Z,2.33
2023-04-23T17:04:59.286Z,3.08
2023-04-23T17:08:01.930Z,3.00
2023-04-23T17:11:07.477Z,6.72
2023-04-23T17:14:09.692Z,3.28
2023-04-23T17:17:11.755Z,5.30
2023-04-23T17:20:15.909Z,4.13
2023-04-23T17:23:21.506Z,3.55
2023-04-23T17:26:24.586Z,6.47
2023-04-23T17:29:26.852Z,4.95
2023-04-23T17:32:31.510Z,4.80
2023-04-23T17:35:33.638Z,4.53
2023-04-23T17:38:35.907Z,5.85
2023-04-23T17:41:38.728Z,8.77
2023-04-23T17:44:42.626Z,7.20
2023-04-23T17:47:55.215Z,6.22
2023-04-23T17:50:57.765Z,6.00
2023-04-23T17:54:02.216Z,4.65
2023-04-23T17:57:04.997Z,3.92
2023-04-23T18:00:10.009Z,4.05
2023-04-23T18:03:18.818Z,11.95
2023-04-23T18:06:22.287Z,9.50
2023-04-23T18:09:24.414Z,5.15
2023-04-23T18:12:30.885Z,4.45
2023-04-23T18:15:33.045Z,4.25
2023-04-23T18:18:35.260Z,3.85
2023-04-23T18:21:38.962Z,4.25
2023-04-23T18:24:41.445Z,5.13
2023-04-23T18:27:44.987Z,5.05
2023-04-23T18:30:47.341Z,6.10
2023-04-23T18:34:00.184Z,4.78
2023-04-23T18:37:09.854Z,5.78
2023-04-23T18:40:12.695Z,6.47
2023-04-23T18:43:25.153Z,7.82
2023-04-23T18:46:28.924Z,6.35
2023-04-23T18:49:46.740Z,4.75
2023-04-23T18:53:00.385Z,6.10
2023-04-23T18:56:10.697Z,6.15
2023-04-23T18:59:20.469Z,9.90
2023-04-23T19:02:34.366Z,6.65
2023-04-23T19:05:38.640Z,6.40
2023-04-23T19:08:42.865Z,5.90
2023-04-23T19:11:45.599Z,6.10
2023-04-23T19:14:48.399Z,5.32
2023-04-23T19:17:50.657Z,5.63
2023-04-23T19:20:52.959Z,5.80
2023-04-23T19:23:56.874Z,5.40
2023-04-23T19:27:01.059Z,5.95
2023-04-23T19:30:10.263Z,8.80
2023-04-23T19:33:15.365Z,8.40
2023-04-23T19:36:19.704Z,7.55
2023-04-23T19:39:23.728Z,7.65
2023-04-23T19:42:25.961Z,8.13
2023-04-23T19:45:30.180Z,8.45
2023-04-23T19:48:32.897Z,9.65
2023-04-23T19:51:39.037Z,8.48
2023-04-23T19:54:49.108Z,7.93
2023-04-23T19:57:51.281Z,8.98
2023-04-23T20:00:54.499Z,8.93
2023-04-23T20:03:56.870Z,9.65
2023-04-23T20:06:59.025Z,8.35
2023-04-23T20:10:01.419Z,8.32
2023-04-23T20:13:03.724Z,8.57
2023-04-23T20:16:08.390Z,8.80
2023-04-23T20:19:13.799Z,7.18
2023-04-23T20:22:18.172Z,8.90
2023-04-23T20:25:25.750Z,9.63
2023-04-23T20:28:28.320Z,8.55
2023-04-23T20:31:31.743Z,8.60
2023-04-23T20:34:34.250Z,10.13
2023-04-23T20:37:37.047Z,10.93
2023-04-23T20:40:39.983Z,11.65
2023-04-23T20:43:43.672Z,12.82
2023-04-23T20:46:46.582Z,11.38
2023-04-23T20:49:49.937Z,10.07
2023-04-23T20:52:52.215Z,10.15
2023-04-23T20:55:57.930Z,10.07
2023-04-23T20:59:00.150Z,9.52
2023-04-23T21:02:03.734Z,10.32
2023-04-23T21:05:08.135Z,7.80
2023-04-23T21:08:11.415Z,9.23
2023-04-23T21:11:18.540Z,6.90
2023-04-23T21:14:21.289Z,7.57
2023-04-23T21:17:26.607Z,8.90
2023-04-23T21:20:29.119Z,5.57
2023-04-23T21:23:32.602Z,6.00
2023-04-23T21:26:34.866Z,6.53
2023-04-23T21:29:37.329Z,7.50
2023-04-23T21:32:39.549Z,6.65
2023-04-23T21:35:42.735Z,5.57
2023-04-23T21:38:45.409Z,5.43
2023-04-23T21:41:47.908Z,6.60
2023-04-23T21:44:53.397Z,6.95
2023-04-23T21:47:58.154Z,5.95
2023-04-23T21:51:00.560Z,5.78
2023-04-23T21:54:04.318Z,5.00
2023-04-23T21:57:06.907Z,4.45
2023-04-23T22:00:14.105Z,6.88
2023-04-23T22:03:27.937Z,7.38
2023-04-23T22:06:42.029Z,5.47
2023-04-23T22:09:44.677Z,5.68
2023-04-23T22:12:49.914Z,6.07
2023-04-23T22:15:52.438Z,5.88
2023-04-23T22:18:55.907Z,5.30
2023-04-23T22:21:58.058Z,6.00
2023-04-23T22:25:01.383Z,5.57
2023-04-23T22:28:03.883Z,4.97
2023-04-23T22:31:05.998Z,4.78
2023-04-23T22:34:08.141Z,5.63
2023-04-23T22:37:10.319Z,4.63
2023-04-23T22:40:12.922Z,4.53
2023-04-23T22:43:15.983Z,5.88
2023-04-23T22:46:18.182Z,5.20
2023-04-23T22:49:20.472Z,5.63
2023-04-23T22:52:22.767Z,5.13
2023-04-23T22:55:27.753Z,5.60
2023-04-23T22:58:30.163Z,5.65
2023-04-23T23:01:32.399Z,4.93
2023-04-23T23:04:38.044Z,5.53
2023-04-23T23:07:40.346Z,3.90
2023-04-23T23:10:43.088Z,4.88
2023-04-23T23:13:48.287Z,5.10
2023-04-23T23:16:50.404Z,4.85
2023-04-23T23:19:53.462Z,6.22
2023-04-23T23:22:55.711Z,4.75
2023-04-23T23:25:59.944Z,5.05
2023-04-23T23:29:02.404Z,5.22
2023-04-23T23:32:04.723Z,4.57
2023-04-23T23:35:08.345Z,4.50
2023-04-23T23:38:11.207Z,5.70
2023-04-23T23:41:13.414Z,4.70
2023-04-23T23:44:16.793Z,5.13
2023-04-23T23:47:19.020Z,4.90
2023-04-23T23:50:21.217Z,6.25
2023-04-23T23:53:23.227Z,4.88
2023-04-23T23:56:25.433Z,5.38
2023-04-23T23:59:27.695Z,5.38
